sensor_id;sensor_type;location;lat;lon;timestamp;temperature;humidity
48589;DHT22;34369;51.174;6.738;2023-08-20T00:02:08;20.30;68.20
48589;DHT22;34369;51.174;6.738;2023-08-20T00:04:43;20.30;68.30
48589;DHT22;34369;51.174;6.738;2023-08-20T00:07:18;20.20;68.20
48589;DHT22;34369;51.174;6.738;2023-08-20T00:09:51;20.20;68.30
48589;DHT22;34369;51.174;6.738;2023-08-20T00:12:24;20.20;68.10
48589;DHT22;34369;51.174;6.738;2023-08-20T00:14:58;20.20;68.10
48589;DHT22;34369;51.174;6.738;2023-08-20T00:17:38;20.20;68.10
48589;DHT22;34369;51.174;6.738;2023-08-20T00:20:11;20.10;68.30
48589;DHT22;34369;51.174;6.738;2023-08-20T00:22:46;20.10;68.30
48589;DHT22;34369;51.174;6.738;2023-08-20T00:25:19;20.10;68.20
48589;DHT22;34369;51.174;6.738;2023-08-20T00:27:52;20.10;68.30
48589;DHT22;34369;51.174;6.738;2023-08-20T00:30:25;20.00;68.60
48589;DHT22;34369;51.174;6.738;2023-08-20T00:32:57;20.00;68.60
48589;DHT22;34369;51.174;6.738;2023-08-20T00:35:29;20.00;68.90
48589;DHT22;34369;51.174;6.738;2023-08-20T00:38:01;20.00;69.00
48589;DHT22;34369;51.174;6.738;2023-08-20T00:40:34;20.00;69.00
48589;DHT22;34369;51.174;6.738;2023-08-20T00:43:08;20.00;69.20
48589;DHT22;34369;51.174;6.738;2023-08-20T00:45:41;20.00;69.40
48589;DHT22;34369;51.174;6.738;2023-08-20T00:48:14;20.00;69.20
48589;DHT22;34369;51.174;6.738;2023-08-20T00:50:47;20.00;69.20
48589;DHT22;34369;51.174;6.738;2023-08-20T00:53:19;19.90;69.20
48589;DHT22;34369;51.174;6.738;2023-08-20T00:55:51;19.90;69.50
48589;DHT22;34369;51.174;6.738;2023-08-20T00:58:26;19.90;69.60
48589;DHT22;34369;51.174;6.738;2023-08-20T01:00:58;19.80;69.90
48589;DHT22;34369;51.174;6.738;2023-08-20T01:03:30;19.80;69.90
48589;DHT22;34369;51.174;6.738;2023-08-20T01:06:12;19.80;69.60
48589;DHT22;34369;51.174;6.738;2023-08-20T01:08:53;19.80;69.60
48589;DHT22;34369;51.174;6.738;2023-08-20T01:11:34;19.80;69.50
48589;DHT22;34369;51.174;6.738;2023-08-20T01:14:16;19.70;69.60
48589;DHT22;34369;51.174;6.738;2023-08-20T01:16:48;19.70;69.60
48589;DHT22;34369;51.174;6.738;2023-08-20T01:19:21;19.70;69.40
48589;DHT22;34369;51.174;6.738;2023-08-20T01:22:11;19.70;69.70
48589;DHT22;34369;51.174;6.738;2023-08-20T01:25:15;19.60;70.00
48589;DHT22;34369;51.174;6.738;2023-08-20T01:30:50;19.60;69.40
48589;DHT22;34369;51.174;6.738;2023-08-20T01:33:23;19.60;69.20
48589;DHT22;34369;51.174;6.738;2023-08-20T01:35:55;19.60;69.30
48589;DHT22;34369;51.174;6.738;2023-08-20T01:38:28;19.60;69.40
48589;DHT22;34369;51.174;6.738;2023-08-20T01:40:59;19.50;69.50
48589;DHT22;34369;51.174;6.738;2023-08-20T01:43:34;19.50;69.50
48589;DHT22;34369;51.174;6.738;2023-08-20T01:46:07;19.50;69.40
48589;DHT22;34369;51.174;6.738;2023-08-20T01:48:40;19.50;69.40
48589;DHT22;34369;51.174;6.738;2023-08-20T01:51:12;19.50;69.30
48589;DHT22;34369;51.174;6.738;2023-08-20T01:53:45;19.40;69.50
48589;DHT22;34369;51.174;6.738;2023-08-20T01:56:17;19.40;69.60
48589;DHT22;34369;51.174;6.738;2023-08-20T01:58:51;19.40;69.60
48589;DHT22;34369;51.174;6.738;2023-08-20T02:01:23;19.40;69.80
48589;DHT22;34369;51.174;6.738;2023-08-20T02:03:56;19.40;69.80
48589;DHT22;34369;51.174;6.738;2023-08-20T02:06:28;19.40;69.80
48589;DHT22;34369;51.174;6.738;2023-08-20T02:09:00;19.40;70.00
48589;DHT22;34369;51.174;6.738;2023-08-20T02:11:33;19.40;69.90
48589;DHT22;34369;51.174;6.738;2023-08-20T02:14:07;19.40;69.90
48589;DHT22;34369;51.174;6.738;2023-08-20T02:16:40;19.40;69.90
48589;DHT22;34369;51.174;6.738;2023-08-20T02:19:12;19.40;70.20
48589;DHT22;34369;51.174;6.738;2023-08-20T02:21:44;19.40;70.00
48589;DHT22;34369;51.174;6.738;2023-08-20T02:24:16;19.40;70.00
48589;DHT22;34369;51.174;6.738;2023-08-20T02:26:48;19.40;70.00
48589;DHT22;34369;51.174;6.738;2023-08-20T02:29:22;19.40;70.10
48589;DHT22;34369;51.174;6.738;2023-08-20T02:31:54;19.40;70.00
48589;DHT22;34369;51.174;6.738;2023-08-20T02:34:26;19.40;70.20
48589;DHT22;34369;51.174;6.738;2023-08-20T02:36:59;19.40;70.30
48589;DHT22;34369;51.174;6.738;2023-08-20T02:39:32;19.40;70.20
48589;DHT22;34369;51.174;6.738;2023-08-20T02:42:05;19.40;70.50
48589;DHT22;34369;51.174;6.738;2023-08-20T02:44:38;19.40;70.90
48589;DHT22;34369;51.174;6.738;2023-08-20T02:47:10;19.40;71.00
48589;DHT22;34369;51.174;6.738;2023-08-20T02:49:42;19.40;71.10
48589;DHT22;34369;51.174;6.738;2023-08-20T02:52:15;19.40;71.20
48589;DHT22;34369;51.174;6.738;2023-08-20T02:54:47;19.40;71.10
48589;DHT22;34369;51.174;6.738;2023-08-20T02:57:19;19.40;71.10
48589;DHT22;34369;51.174;6.738;2023-08-20T02:59:53;19.40;70.90
48589;DHT22;34369;51.174;6.738;2023-08-20T03:02:25;19.40;70.90
48589;DHT22;34369;51.174;6.738;2023-08-20T03:04:57;19.50;70.80
48589;DHT22;34369;51.174;6.738;2023-08-20T03:07:29;19.40;70.80
48589;DHT22;34369;51.174;6.738;2023-08-20T03:10:02;19.50;70.80
48589;DHT22;34369;51.174;6.738;2023-08-20T03:12:35;19.50;70.90
48589;DHT22;34369;51.174;6.738;2023-08-20T03:15:10;19.40;70.70
48589;DHT22;34369;51.174;6.738;2023-08-20T03:17:42;19.40;70.80
48589;DHT22;34369;51.174;6.738;2023-08-20T03:20:14;19.40;70.80
48589;DHT22;34369;51.174;6.738;2023-08-20T03:22:46;19.40;70.90
48589;DHT22;34369;51.174;6.738;2023-08-20T03:25:18;19.40;71.10
48589;DHT22;34369;51.174;6.738;2023-08-20T03:27:51;19.50;71.10
48589;DHT22;34369;51.174;6.738;2023-08-20T03:30:25;19.50;71.00
48589;DHT22;34369;51.174;6.738;2023-08-20T03:32:58;19.40;71.10
48589;DHT22;34369;51.174;6.738;2023-08-20T03:35:30;19.50;71.20
48589;DHT22;34369;51.174;6.738;2023-08-20T03:38:03;19.50;71.10
48589;DHT22;34369;51.174;6.738;2023-08-20T03:40:35;19.50;71.00
48589;DHT22;34369;51.174;6.738;2023-08-20T03:43:07;19.50;71.10
48589;DHT22;34369;51.174;6.738;2023-08-20T03:45:41;19.50;71.10
48589;DHT22;34369;51.174;6.738;2023-08-20T03:48:14;19.50;71.00
48589;DHT22;34369;51.174;6.738;2023-08-20T03:50:47;19.50;71.00
48589;DHT22;34369;51.174;6.738;2023-08-20T03:53:19;19.50;70.80
48589;DHT22;34369;51.174;6.738;2023-08-20T03:55:52;19.50;70.90
48589;DHT22;34369;51.174;6.738;2023-08-20T03:58:25;19.50;70.90
48589;DHT22;34369;51.174;6.738;2023-08-20T04:00:58;19.50;70.80
48589;DHT22;34369;51.174;6.738;2023-08-20T04:03:32;19.50;70.90
48589;DHT22;34369;51.174;6.738;2023-08-20T04:06:04;19.50;70.90
48589;DHT22;34369;51.174;6.738;2023-08-20T04:08:37;19.50;70.90
48589;DHT22;34369;51.174;6.738;2023-08-20T04:11:10;19.50;70.90
48589;DHT22;34369;51.174;6.738;2023-08-20T04:13:42;19.50;70.70
48589;DHT22;34369;51.174;6.738;2023-08-20T04:16:17;19.40;70.80
48589;DHT22;34369;51.174;6.738;2023-08-20T04:18:50;19.50;70.70
48589;DHT22;34369;51.174;6.738;2023-08-20T04:21:22;19.40;70.70
48589;DHT22;34369;51.174;6.738;2023-08-20T04:23:55;19.40;70.70
48589;DHT22;34369;51.174;6.738;2023-08-20T04:26:27;19.40;70.80
48589;DHT22;34369;51.174;6.738;2023-08-20T04:29:01;19.40;70.80
48589;DHT22;34369;51.174;6.738;2023-08-20T04:31:35;19.40;70.80
48589;DHT22;34369;51.174;6.738;2023-08-20T04:34:08;19.40;70.80
48589;DHT22;34369;51.174;6.738;2023-08-20T04:36:39;19.40;70.70
48589;DHT22;34369;51.174;6.738;2023-08-20T04:39:12;19.40;70.60
48589;DHT22;34369;51.174;6.738;2023-08-20T04:41:45;19.40;70.70
48589;DHT22;34369;51.174;6.738;2023-08-20T04:44:17;19.40;70.50
48589;DHT22;34369;51.174;6.738;2023-08-20T04:46:52;19.40;70.50
48589;DHT22;34369;51.174;6.738;2023-08-20T04:49:24;19.30;70.50
48589;DHT22;34369;51.174;6.738;2023-08-20T04:51:59;19.30;70.40
48589;DHT22;34369;51.174;6.738;2023-08-20T04:54:31;19.20;70.40
48589;DHT22;34369;51.174;6.738;2023-08-20T04:57:04;19.20;70.40
48589;DHT22;34369;51.174;6.738;2023-08-20T04:59:38;19.20;70.30
48589;DHT22;34369;51.174;6.738;2023-08-20T05:02:15;19.20;70.50
48589;DHT22;34369;51.174;6.738;2023-08-20T05:04:48;19.20;70.50
48589;DHT22;34369;51.174;6.738;2023-08-20T05:07:21;19.20;70.60
48589;DHT22;34369;51.174;6.738;2023-08-20T05:09:53;19.20;70.70
48589;DHT22;34369;51.174;6.738;2023-08-20T05:12:26;19.10;70.70
48589;DHT22;34369;51.174;6.738;2023-08-20T05:14:59;19.10;70.70
48589;DHT22;34369;51.174;6.738;2023-08-20T05:17:35;19.10;70.80
48589;DHT22;34369;51.174;6.738;2023-08-20T05:20:07;19.00;70.90
48589;DHT22;34369;51.174;6.738;2023-08-20T05:22:41;19.00;70.90
48589;DHT22;34369;51.174;6.738;2023-08-20T05:25:13;19.00;71.10
48589;DHT22;34369;51.174;6.738;2023-08-20T05:27:46;19.00;71.10
48589;DHT22;34369;51.174;6.738;2023-08-20T05:30:19;19.00;71.10
48589;DHT22;34369;51.174;6.738;2023-08-20T05:32:52;19.00;71.20
48589;DHT22;34369;51.174;6.738;2023-08-20T05:35:24;19.00;71.20
48589;DHT22;34369;51.174;6.738;2023-08-20T05:37:57;19.00;71.40
48589;DHT22;34369;51.174;6.738;2023-08-20T05:40:30;19.00;71.50
48589;DHT22;34369;51.174;6.738;2023-08-20T05:43:02;19.00;71.60
48589;DHT22;34369;51.174;6.738;2023-08-20T05:45:36;19.00;71.50
48589;DHT22;34369;51.174;6.738;2023-08-20T05:48:10;19.00;71.60
48589;DHT22;34369;51.174;6.738;2023-08-20T05:50:42;19.10;71.70
48589;DHT22;34369;51.174;6.738;2023-08-20T05:53:14;19.10;71.60
48589;DHT22;34369;51.174;6.738;2023-08-20T05:55:47;19.20;71.80
48589;DHT22;34369;51.174;6.738;2023-08-20T05:58:19;19.20;71.80
48589;DHT22;34369;51.174;6.738;2023-08-20T06:00:52;19.20;71.80
48589;DHT22;34369;51.174;6.738;2023-08-20T06:03:26;19.20;72.00
48589;DHT22;34369;51.174;6.738;2023-08-20T06:05:58;19.20;72.10
48589;DHT22;34369;51.174;6.738;2023-08-20T06:08:31;19.20;72.20
48589;DHT22;34369;51.174;6.738;2023-08-20T06:11:04;19.30;72.20
48589;DHT22;34369;51.174;6.738;2023-08-20T06:13:37;19.40;72.20
48589;DHT22;34369;51.174;6.738;2023-08-20T06:16:11;19.40;72.20
48589;DHT22;34369;51.174;6.738;2023-08-20T06:18:45;19.40;72.10
48589;DHT22;34369;51.174;6.738;2023-08-20T06:21:17;19.50;72.10
48589;DHT22;34369;51.174;6.738;2023-08-20T06:23:50;19.50;71.90
48589;DHT22;34369;51.174;6.738;2023-08-20T06:26:22;19.50;71.80
48589;DHT22;34369;51.174;6.738;2023-08-20T06:28:54;19.60;71.90
48589;DHT22;34369;51.174;6.738;2023-08-20T06:31:27;19.70;71.80
48589;DHT22;34369;51.174;6.738;2023-08-20T06:34:02;19.70;71.90
48589;DHT22;34369;51.174;6.738;2023-08-20T06:36:35;19.70;71.70
48589;DHT22;34369;51.174;6.738;2023-08-20T06:39:10;19.80;71.40
48589;DHT22;34369;51.174;6.738;2023-08-20T06:41:42;19.90;71.30
48589;DHT22;34369;51.174;6.738;2023-08-20T06:44:14;20.00;71.20
48589;DHT22;34369;51.174;6.738;2023-08-20T06:46:47;20.00;71.10
48589;DHT22;34369;51.174;6.738;2023-08-20T06:49:21;20.00;71.10
48589;DHT22;34369;51.174;6.738;2023-08-20T06:51:54;20.10;71.10
48589;DHT22;34369;51.174;6.738;2023-08-20T06:54:26;20.20;71.20
48589;DHT22;34369;51.174;6.738;2023-08-20T06:56:58;20.20;71.20
48589;DHT22;34369;51.174;6.738;2023-08-20T06:59:31;20.30;71.20
48589;DHT22;34369;51.174;6.738;2023-08-20T07:02:04;20.40;71.10
48589;DHT22;34369;51.174;6.738;2023-08-20T07:04:39;20.50;71.00
48589;DHT22;34369;51.174;6.738;2023-08-20T07:07:12;20.60;70.90
48589;DHT22;34369;51.174;6.738;2023-08-20T07:09:45;20.70;70.70
48589;DHT22;34369;51.174;6.738;2023-08-20T07:12:18;20.70;70.50
48589;DHT22;34369;51.174;6.738;2023-08-20T07:14:51;20.80;70.30
48589;DHT22;34369;51.174;6.738;2023-08-20T07:17:23;20.90;70.30
48589;DHT22;34369;51.174;6.738;2023-08-20T07:19:57;21.00;70.20
48589;DHT22;34369;51.174;6.738;2023-08-20T07:22:30;21.00;70.00
48589;DHT22;34369;51.174;6.738;2023-08-20T07:25:03;21.10;70.00
48589;DHT22;34369;51.174;6.738;2023-08-20T07:27:35;21.10;69.90
48589;DHT22;34369;51.174;6.738;2023-08-20T07:30:08;21.20;69.70
48589;DHT22;34369;51.174;6.738;2023-08-20T07:32:41;21.30;69.60
48589;DHT22;34369;51.174;6.738;2023-08-20T07:35:15;21.40;69.50
48589;DHT22;34369;51.174;6.738;2023-08-20T07:37:47;21.50;69.30
48589;DHT22;34369;51.174;6.738;2023-08-20T07:40:20;21.50;69.30
48589;DHT22;34369;51.174;6.738;2023-08-20T07:42:53;21.70;69.50
48589;DHT22;34369;51.174;6.738;2023-08-20T07:45:26;21.70;69.30
48589;DHT22;34369;51.174;6.738;2023-08-20T07:47:59;21.90;69.40
48589;DHT22;34369;51.174;6.738;2023-08-20T07:50:33;22.00;69.50
48589;DHT22;34369;51.174;6.738;2023-08-20T07:53:06;22.20;69.60
48589;DHT22;34369;51.174;6.738;2023-08-20T07:55:38;22.50;69.90
48589;DHT22;34369;51.174;6.738;2023-08-20T07:58:11;22.90;69.80
48589;DHT22;34369;51.174;6.738;2023-08-20T08:00:43;23.30;69.50
48589;DHT22;34369;51.174;6.738;2023-08-20T08:03:18;23.80;68.70
48589;DHT22;34369;51.174;6.738;2023-08-20T08:05:52;24.30;69.10
48589;DHT22;34369;51.174;6.738;2023-08-20T08:08:24;24.80;67.30
48589;DHT22;34369;51.174;6.738;2023-08-20T08:10:57;25.30;66.10
48589;DHT22;34369;51.174;6.738;2023-08-20T08:13:29;25.60;65.30
48589;DHT22;34369;51.174;6.738;2023-08-20T08:16:16;26.00;65.20
48589;DHT22;34369;51.174;6.738;2023-08-20T08:18:54;26.50;62.90
48589;DHT22;34369;51.174;6.738;2023-08-20T08:21:28;26.90;63.60
48589;DHT22;34369;51.174;6.738;2023-08-20T08:24:00;27.40;63.00
48589;DHT22;34369;51.174;6.738;2023-08-20T08:26:34;27.80;61.10
48589;DHT22;34369;51.174;6.738;2023-08-20T08:29:07;28.30;59.70
48589;DHT22;34369;51.174;6.738;2023-08-20T08:31:40;28.80;59.10
48589;DHT22;34369;51.174;6.738;2023-08-20T08:34:12;29.20;58.00
48589;DHT22;34369;51.174;6.738;2023-08-20T08:36:46;29.50;57.10
48589;DHT22;34369;51.174;6.738;2023-08-20T08:39:18;30.00;56.60
48589;DHT22;34369;51.174;6.738;2023-08-20T08:41:53;30.30;55.40
48589;DHT22;34369;51.174;6.738;2023-08-20T08:44:31;30.70;54.10
48589;DHT22;34369;51.174;6.738;2023-08-20T08:47:04;31.00;52.80
48589;DHT22;34369;51.174;6.738;2023-08-20T08:49:37;31.30;52.60
48589;DHT22;34369;51.174;6.738;2023-08-20T08:52:11;31.50;51.60
48589;DHT22;34369;51.174;6.738;2023-08-20T08:54:46;31.80;50.70
48589;DHT22;34369;51.174;6.738;2023-08-20T08:57:19;32.00;50.40
48589;DHT22;34369;51.174;6.738;2023-08-20T08:59:51;32.30;50.60
48589;DHT22;34369;51.174;6.738;2023-08-20T09:02:24;32.50;49.70
48589;DHT22;34369;51.174;6.738;2023-08-20T09:04:57;32.80;48.90
48589;DHT22;34369;51.174;6.738;2023-08-20T09:07:31;33.00;47.90
48589;DHT22;34369;51.174;6.738;2023-08-20T09:10:04;33.20;47.20
48589;DHT22;34369;51.174;6.738;2023-08-20T09:12:36;33.30;46.50
48589;DHT22;34369;51.174;6.738;2023-08-20T09:15:10;33.50;46.10
48589;DHT22;34369;51.174;6.738;2023-08-20T09:17:43;33.60;45.90
48589;DHT22;34369;51.174;6.738;2023-08-20T09:20:15;33.60;45.10
48589;DHT22;34369;51.174;6.738;2023-08-20T09:22:50;33.60;44.80
48589;DHT22;34369;51.174;6.738;2023-08-20T09:25:22;33.50;44.20
48589;DHT22;34369;51.174;6.738;2023-08-20T09:27:54;33.30;44.20
48589;DHT22;34369;51.174;6.738;2023-08-20T09:30:26;33.00;44.10
48589;DHT22;34369;51.174;6.738;2023-08-20T09:33:07;32.70;44.40
48589;DHT22;34369;51.174;6.738;2023-08-20T09:35:49;32.30;44.50
48589;DHT22;34369;51.174;6.738;2023-08-20T09:38:24;32.00;44.80
48589;DHT22;34369;51.174;6.738;2023-08-20T09:40:56;31.70;45.10
48589;DHT22;34369;51.174;6.738;2023-08-20T09:43:32;31.40;45.60
48589;DHT22;34369;51.174;6.738;2023-08-20T09:46:05;31.10;45.60
48589;DHT22;34369;51.174;6.738;2023-08-20T09:48:38;30.80;46.20
48589;DHT22;34369;51.174;6.738;2023-08-20T09:51:14;30.50;46.30
48589;DHT22;34369;51.174;6.738;2023-08-20T09:53:55;30.30;46.80
48589;DHT22;34369;51.174;6.738;2023-08-20T09:56:36;30.00;47.10
48589;DHT22;34369;51.174;6.738;2023-08-20T09:59:11;29.70;47.00
48589;DHT22;34369;51.174;6.738;2023-08-20T10:01:43;29.50;47.50
48589;DHT22;34369;51.174;6.738;2023-08-20T10:04:18;29.20;48.20
48589;DHT22;34369;51.174;6.738;2023-08-20T10:06:52;29.00;48.00
48589;DHT22;34369;51.174;6.738;2023-08-20T10:09:28;28.80;48.60
48589;DHT22;34369;51.174;6.738;2023-08-20T10:12:01;28.60;49.00
48589;DHT22;34369;51.174;6.738;2023-08-20T10:14:33;28.40;49.60
48589;DHT22;34369;51.174;6.738;2023-08-20T10:17:07;28.30;49.70
48589;DHT22;34369;51.174;6.738;2023-08-20T10:19:40;28.30;49.90
48589;DHT22;34369;51.174;6.738;2023-08-20T10:22:13;28.20;49.90
48589;DHT22;34369;51.174;6.738;2023-08-20T10:24:52;28.10;50.00
48589;DHT22;34369;51.174;6.738;2023-08-20T10:27:25;28.00;50.30
48589;DHT22;34369;51.174;6.738;2023-08-20T10:29:59;28.00;50.40
48589;DHT22;34369;51.174;6.738;2023-08-20T10:32:46;27.80;50.70
48589;DHT22;34369;51.174;6.738;2023-08-20T10:35:23;27.80;50.80
48589;DHT22;34369;51.174;6.738;2023-08-20T10:38:02;27.70;51.10
48589;DHT22;34369;51.174;6.738;2023-08-20T10:40:56;27.60;51.80
48589;DHT22;34369;51.174;6.738;2023-08-20T10:43:30;27.60;52.20
48589;DHT22;34369;51.174;6.738;2023-08-20T10:46:16;27.60;51.40
48589;DHT22;34369;51.174;6.738;2023-08-20T10:48:50;27.60;51.60
48589;DHT22;34369;51.174;6.738;2023-08-20T10:51:25;27.60;51.80
48589;DHT22;34369;51.174;6.738;2023-08-20T10:54:04;27.60;51.70
48589;DHT22;34369;51.174;6.738;2023-08-20T10:56:41;27.60;51.70
48589;DHT22;34369;51.174;6.738;2023-08-20T10:59:14;27.60;51.00
48589;DHT22;34369;51.174;6.738;2023-08-20T11:01:49;27.60;51.50
48589;DHT22;34369;51.174;6.738;2023-08-20T11:04:23;27.60;51.10
48589;DHT22;34369;51.174;6.738;2023-08-20T11:06:57;27.50;51.30
48589;DHT22;34369;51.174;6.738;2023-08-20T11:09:31;27.50;51.70
48589;DHT22;34369;51.174;6.738;2023-08-20T11:12:06;27.50;51.50
48589;DHT22;34369;51.174;6.738;2023-08-20T11:14:39;27.50;51.20
48589;DHT22;34369;51.174;6.738;2023-08-20T11:17:11;27.50;51.50
48589;DHT22;34369;51.174;6.738;2023-08-20T11:19:44;27.50;51.80
48589;DHT22;34369;51.174;6.738;2023-08-20T11:22:16;27.50;51.80
48589;DHT22;34369;51.174;6.738;2023-08-20T11:24:50;27.50;51.80
48589;DHT22;34369;51.174;6.738;2023-08-20T11:27:28;27.50;51.70
48589;DHT22;34369;51.174;6.738;2023-08-20T11:30:00;27.50;51.50
48589;DHT22;34369;51.174;6.738;2023-08-20T11:32:34;27.60;51.50
48589;DHT22;34369;51.174;6.738;2023-08-20T11:35:07;27.60;51.70
48589;DHT22;34369;51.174;6.738;2023-08-20T11:37:40;27.80;51.80
48589;DHT22;34369;51.174;6.738;2023-08-20T11:40:12;28.00;51.20
48589;DHT22;34369;51.174;6.738;2023-08-20T11:42:46;28.00;51.40
48589;DHT22;34369;51.174;6.738;2023-08-20T11:45:18;28.20;50.80
48589;DHT22;34369;51.174;6.738;2023-08-20T11:47:55;28.20;50.10
48589;DHT22;34369;51.174;6.738;2023-08-20T11:50:28;28.30;50.40
48589;DHT22;34369;51.174;6.738;2023-08-20T11:53:00;28.30;50.40
48589;DHT22;34369;51.174;6.738;2023-08-20T11:55:33;28.30;50.40
48589;DHT22;34369;51.174;6.738;2023-08-20T11:58:09;28.30;50.50
48589;DHT22;34369;51.174;6.738;2023-08-20T12:00:43;28.30;50.10
48589;DHT22;34369;51.174;6.738;2023-08-20T12:03:20;28.30;50.00
48589;DHT22;34369;51.174;6.738;2023-08-20T12:05:52;28.20;50.50
48589;DHT22;34369;51.174;6.738;2023-08-20T12:08:25;28.20;50.70
48589;DHT22;34369;51.174;6.738;2023-08-20T12:10:58;28.20;51.20
48589;DHT22;34369;51.174;6.738;2023-08-20T12:13:32;28.20;50.90
48589;DHT22;34369;51.174;6.738;2023-08-20T12:16:04;28.30;51.60
48589;DHT22;34369;51.174;6.738;2023-08-20T12:18:36;28.40;51.10
48589;DHT22;34369;51.174;6.738;2023-08-20T12:21:08;28.50;51.20
48589;DHT22;34369;51.174;6.738;2023-08-20T12:23:40;28.70;51.00
48589;DHT22;34369;51.174;6.738;2023-08-20T12:26:12;28.80;50.90
48589;DHT22;34369;51.174;6.738;2023-08-20T12:28:46;28.90;50.30
48589;DHT22;34369;51.174;6.738;2023-08-20T12:31:19;29.00;49.80
48589;DHT22;34369;51.174;6.738;2023-08-20T12:33:51;29.10;50.10
48589;DHT22;34369;51.174;6.738;2023-08-20T12:36:23;29.10;50.00
48589;DHT22;34369;51.174;6.738;2023-08-20T12:38:56;29.10;49.80
48589;DHT22;34369;51.174;6.738;2023-08-20T12:41:28;29.20;49.70
48589;DHT22;34369;51.174;6.738;2023-08-20T12:44:02;29.20;49.70
48589;DHT22;34369;51.174;6.738;2023-08-20T12:46:35;29.10;49.40
48589;DHT22;34369;51.174;6.738;2023-08-20T12:49:07;29.20;49.60
48589;DHT22;34369;51.174;6.738;2023-08-20T12:51:39;29.20;49.40
48589;DHT22;34369;51.174;6.738;2023-08-20T12:54:11;29.20;49.40
48589;DHT22;34369;51.174;6.738;2023-08-20T12:56:43;29.20;49.80
48589;DHT22;34369;51.174;6.738;2023-08-20T12:59:17;29.20;49.30
48589;DHT22;34369;51.174;6.738;2023-08-20T13:01:49;29.30;49.60
48589;DHT22;34369;51.174;6.738;2023-08-20T13:04:22;29.40;50.00
48589;DHT22;34369;51.174;6.738;2023-08-20T13:06:55;29.50;49.80
48589;DHT22;34369;51.174;6.738;2023-08-20T13:09:28;29.50;49.30
48589;DHT22;34369;51.174;6.738;2023-08-20T13:12:01;29.50;49.00
48589;DHT22;34369;51.174;6.738;2023-08-20T13:14:38;29.50;49.00
48589;DHT22;34369;51.174;6.738;2023-08-20T13:17:11;29.50;49.00
48589;DHT22;34369;51.174;6.738;2023-08-20T13:19:44;29.50;48.80
48589;DHT22;34369;51.174;6.738;2023-08-20T13:22:16;29.60;49.10
48589;DHT22;34369;51.174;6.738;2023-08-20T13:24:48;29.70;48.70
48589;DHT22;34369;51.174;6.738;2023-08-20T13:27:20;29.80;49.30
48589;DHT22;34369;51.174;6.738;2023-08-20T13:29:54;29.90;48.40
48589;DHT22;34369;51.174;6.738;2023-08-20T13:32:27;30.00;48.00
48589;DHT22;34369;51.174;6.738;2023-08-20T13:34:59;30.10;48.20
48589;DHT22;34369;51.174;6.738;2023-08-20T13:37:32;30.10;47.60
48589;DHT22;34369;51.174;6.738;2023-08-20T13:40:06;30.10;47.50
48589;DHT22;34369;51.174;6.738;2023-08-20T13:42:40;30.10;47.70
48589;DHT22;34369;51.174;6.738;2023-08-20T13:45:13;30.10;48.10
48589;DHT22;34369;51.174;6.738;2023-08-20T13:47:45;30.10;48.10
48589;DHT22;34369;51.174;6.738;2023-08-20T13:50:18;30.10;48.00
48589;DHT22;34369;51.174;6.738;2023-08-20T13:52:50;30.10;47.70
48589;DHT22;34369;51.174;6.738;2023-08-20T13:55:22;30.10;47.90
48589;DHT22;34369;51.174;6.738;2023-08-20T13:57:55;30.10;48.00
48589;DHT22;34369;51.174;6.738;2023-08-20T14:00:29;30.10;48.00
48589;DHT22;34369;51.174;6.738;2023-08-20T14:03:02;30.10;48.10
48589;DHT22;34369;51.174;6.738;2023-08-20T14:05:35;30.10;48.20
48589;DHT22;34369;51.174;6.738;2023-08-20T14:08:07;30.20;47.50
48589;DHT22;34369;51.174;6.738;2023-08-20T14:10:40;30.30;47.90
48589;DHT22;34369;51.174;6.738;2023-08-20T14:13:12;30.30;47.80
48589;DHT22;34369;51.174;6.738;2023-08-20T14:15:45;30.30;47.50
48589;DHT22;34369;51.174;6.738;2023-08-20T14:18:18;30.40;47.40
48589;DHT22;34369;51.174;6.738;2023-08-20T14:20:51;30.50;47.40
48589;DHT22;34369;51.174;6.738;2023-08-20T14:23:24;30.50;47.80
48589;DHT22;34369;51.174;6.738;2023-08-20T14:25:57;30.60;47.40
48589;DHT22;34369;51.174;6.738;2023-08-20T14:28:29;30.60;47.40
48589;DHT22;34369;51.174;6.738;2023-08-20T14:31:03;30.70;46.90
48589;DHT22;34369;51.174;6.738;2023-08-20T14:33:36;30.80;47.00
48589;DHT22;34369;51.174;6.738;2023-08-20T14:36:08;30.90;46.30
48589;DHT22;34369;51.174;6.738;2023-08-20T14:38:41;30.90;46.50
48589;DHT22;34369;51.174;6.738;2023-08-20T14:41:13;31.00;47.10
48589;DHT22;34369;51.174;6.738;2023-08-20T14:43:46;31.10;47.00
48589;DHT22;34369;51.174;6.738;2023-08-20T14:46:19;31.10;46.50
48589;DHT22;34369;51.174;6.738;2023-08-20T14:48:51;31.20;46.20
48589;DHT22;34369;51.174;6.738;2023-08-20T14:51:25;31.30;45.70
48589;DHT22;34369;51.174;6.738;2023-08-20T14:53:57;31.30;45.30
48589;DHT22;34369;51.174;6.738;2023-08-20T14:56:30;31.40;45.30
48589;DHT22;34369;51.174;6.738;2023-08-20T14:59:02;31.40;45.30
48589;DHT22;34369;51.174;6.738;2023-08-20T15:01:36;31.40;45.80
48589;DHT22;34369;51.174;6.738;2023-08-20T15:04:08;31.40;45.20
48589;DHT22;34369;51.174;6.738;2023-08-20T15:06:40;31.40;45.30
48589;DHT22;34369;51.174;6.738;2023-08-20T15:09:12;31.50;45.20
48589;DHT22;34369;51.174;6.738;2023-08-20T15:11:46;31.50;45.30
48589;DHT22;34369;51.174;6.738;2023-08-20T15:14:19;31.50;45.00
48589;DHT22;34369;51.174;6.738;2023-08-20T15:16:53;31.50;44.30
48589;DHT22;34369;51.174;6.738;2023-08-20T15:19:26;31.50;45.10
48589;DHT22;34369;51.174;6.738;2023-08-20T15:22:01;31.50;44.90
48589;DHT22;34369;51.174;6.738;2023-08-20T15:24:34;31.60;43.50
48589;DHT22;34369;51.174;6.738;2023-08-20T15:27:07;31.70;44.00
48589;DHT22;34369;51.174;6.738;2023-08-20T15:29:39;31.60;43.60
48589;DHT22;34369;51.174;6.738;2023-08-20T15:32:12;31.60;43.20
48589;DHT22;34369;51.174;6.738;2023-08-20T15:34:45;31.60;43.60
48589;DHT22;34369;51.174;6.738;2023-08-20T15:37:16;31.60;43.70
48589;DHT22;34369;51.174;6.738;2023-08-20T15:39:49;31.60;43.60
48589;DHT22;34369;51.174;6.738;2023-08-20T15:42:22;31.60;43.60
48589;DHT22;34369;51.174;6.738;2023-08-20T15:44:54;31.60;43.70
48589;DHT22;34369;51.174;6.738;2023-08-20T15:47:29;31.70;44.00
48589;DHT22;34369;51.174;6.738;2023-08-20T15:50:15;31.70;43.90
48589;DHT22;34369;51.174;6.738;2023-08-20T15:52:47;31.70;42.70
48589;DHT22;34369;51.174;6.738;2023-08-20T15:55:19;31.70;43.20
48589;DHT22;34369;51.174;6.738;2023-08-20T15:57:51;31.70;43.50
48589;DHT22;34369;51.174;6.738;2023-08-20T16:00:24;31.70;43.50
48589;DHT22;34369;51.174;6.738;2023-08-20T16:02:58;31.70;43.00
48589;DHT22;34369;51.174;6.738;2023-08-20T16:05:31;31.70;43.10
48589;DHT22;34369;51.174;6.738;2023-08-20T16:08:03;31.70;42.80
48589;DHT22;34369;51.174;6.738;2023-08-20T16:10:36;31.70;42.50
48589;DHT22;34369;51.174;6.738;2023-08-20T16:13:08;31.70;42.10